createdAt,value
2018-09-20T00:01:26.408Z,15.92
2018-09-20T00:03:58.452Z,15.90
2018-09-20T00:06:30.604Z,15.88
2018-09-20T00:09:03.915Z,15.80
2018-09-20T00:11:35.959Z,15.73
2018-09-20T00:14:07.992Z,15.73
2018-09-20T00:16:40.028Z,15.63
2018-09-20T00:19:12.046Z,15.55
2018-09-20T00:21:44.058Z,15.54
2018-09-20T00:24:16.096Z,15.48
2018-09-20T00:26:48.117Z,15.48
2018-09-20T00:29:20.241Z,15.35
2018-09-20T00:31:52.427Z,15.35
2018-09-20T00:34:24.452Z,15.39
2018-09-20T00:36:56.584Z,15.39
2018-09-20T00:39:28.627Z,15.45
2018-09-20T00:42:00.652Z,15.50
2018-09-20T00:44:32.741Z,15.56
2018-09-20T00:47:04.803Z,15.59
2018-09-20T00:49:36.844Z,15.53
2018-09-20T00:52:08.880Z,15.50
2018-09-20T00:54:40.913Z,15.58
2018-09-20T00:57:12.926Z,15.56
2018-09-20T00:59:44.947Z,15.51
2018-09-20T01:02:16.979Z,15.50
2018-09-20T01:04:49.011Z,15.49
2018-09-20T01:07:20.999Z,15.44
2018-09-20T01:09:53.060Z,15.42
2018-09-20T01:12:25.079Z,15.35
2018-09-20T01:14:57.224Z,15.30
2018-09-20T01:17:29.308Z,15.33
2018-09-20T01:20:01.349Z,15.33
2018-09-20T01:22:33.387Z,15.35
2018-09-20T01:25:05.661Z,15.20
2018-09-20T01:27:37.663Z,15.25
2018-09-20T01:30:09.711Z,15.32
2018-09-20T01:32:41.712Z,15.28
2018-09-20T01:35:13.877Z,15.23
2018-09-20T01:37:45.848Z,15.27
2018-09-20T01:40:17.905Z,15.26
2018-09-20T01:42:49.896Z,15.21
2018-09-20T01:45:23.029Z,15.15
2018-09-20T01:47:55.036Z,15.16
2018-09-20T01:50:27.080Z,15.04
2018-09-20T01:53:00.096Z,15.09
2018-09-20T01:55:32.121Z,15.11
2018-09-20T01:58:04.106Z,15.06
2018-09-20T02:00:36.132Z,15.03
2018-09-20T02:03:08.203Z,15.04
2018-09-20T02:05:40.215Z,14.91
2018-09-20T02:08:12.223Z,14.99
2018-09-20T02:10:44.248Z,15.00
2018-09-20T02:13:16.268Z,14.87
2018-09-20T02:15:48.297Z,14.78
2018-09-20T02:18:20.356Z,14.76
2018-09-20T02:20:52.384Z,14.84
2018-09-20T02:23:24.657Z,14.83
2018-09-20T02:25:56.681Z,14.85
2018-09-20T02:28:28.689Z,14.74
2018-09-20T02:31:00.716Z,14.77
2018-09-20T02:33:32.743Z,14.76
2018-09-20T02:36:04.780Z,14.69
2018-09-20T02:38:36.859Z,14.73
2018-09-20T02:41:09.561Z,14.68
2018-09-20T02:43:41.589Z,14.63
2018-09-20T02:46:13.639Z,14.66
2018-09-20T02:48:45.637Z,14.65
2018-09-20T02:51:17.646Z,14.60
2018-09-20T02:53:49.663Z,14.50
2018-09-20T02:56:21.698Z,14.42
2018-09-20T02:58:53.888Z,14.41
2018-09-20T03:01:25.815Z,14.39
2018-09-20T03:03:57.849Z,14.38
2018-09-20T03:06:29.885Z,14.23
2018-09-20T03:09:02.003Z,14.36
2018-09-20T03:11:34.040Z,14.32
2018-09-20T03:14:06.427Z,14.34
2018-09-20T03:16:38.493Z,14.36
2018-09-20T03:19:10.631Z,14.37
2018-09-20T03:21:42.715Z,14.27
2018-09-20T03:24:14.732Z,14.18
2018-09-20T03:26:46.840Z,14.23
2018-09-20T03:29:18.916Z,14.31
2018-09-20T03:31:57.733Z,14.29
2018-09-20T03:34:29.765Z,14.33
2018-09-20T03:37:01.868Z,14.33
2018-09-20T03:39:33.898Z,14.29
2018-09-20T03:42:06.005Z,14.31
2018-09-20T03:44:38.071Z,14.40
2018-09-20T03:47:10.133Z,14.29
2018-09-20T03:49:42.202Z,14.34
2018-09-20T03:52:14.242Z,14.39
2018-09-20T03:54:46.243Z,14.42
2018-09-20T03:57:18.267Z,14.42
2018-09-20T03:59:50.291Z,14.43
2018-09-20T04:02:22.384Z,14.49
2018-09-20T04:04:54.420Z,14.53
2018-09-20T04:07:26.522Z,14.53
2018-09-20T04:09:58.575Z,14.59
2018-09-20T04:12:30.672Z,14.60
2018-09-20T04:15:02.753Z,14.60
2018-09-20T04:17:34.807Z,14.53
2018-09-20T04:20:07.452Z,14.54
2018-09-20T04:22:39.517Z,14.56
2018-09-20T04:25:11.593Z,14.55
2018-09-20T04:27:43.666Z,14.56
2018-09-20T04:30:15.698Z,14.55
2018-09-20T04:32:47.770Z,14.55
2018-09-20T04:35:19.828Z,14.60
2018-09-20T04:37:51.907Z,14.60
2018-09-20T04:40:23.976Z,14.62
2018-09-20T04:42:56.091Z,14.63
2018-09-20T04:45:28.214Z,14.61
2018-09-20T04:48:00.256Z,14.57
2018-09-20T04:50:32.293Z,14.55
2018-09-20T04:53:04.414Z,14.55
2018-09-20T04:55:36.434Z,14.56
2018-09-20T04:58:08.560Z,14.55
2018-09-20T05:00:40.644Z,14.56
2018-09-20T05:03:12.779Z,14.53
2018-09-20T05:05:44.932Z,14.59
2018-09-20T05:08:17.003Z,14.57
2018-09-20T05:10:49.135Z,14.50
2018-09-20T05:13:21.233Z,14.50
2018-09-20T05:15:53.327Z,14.57
2018-09-20T05:18:25.482Z,14.58
2018-09-20T05:20:57.590Z,14.62
2018-09-20T05:23:29.716Z,14.65
2018-09-20T05:26:01.961Z,14.71
2018-09-20T05:28:34.182Z,14.74
2018-09-20T05:31:06.300Z,14.80
2018-09-20T05:33:38.410Z,14.83
2018-09-20T05:36:10.559Z,14.82
2018-09-20T05:38:42.683Z,14.95
2018-09-20T05:41:14.816Z,14.97
2018-09-20T05:43:46.976Z,15.04
2018-09-20T05:46:19.147Z,15.14
2018-09-20T05:48:51.275Z,15.17
2018-09-20T05:51:23.383Z,15.22
2018-09-20T05:53:55.502Z,15.25
2018-09-20T05:56:27.595Z,15.26
2018-09-20T05:58:59.729Z,15.35
2018-09-20T06:01:31.849Z,15.40
2018-09-20T06:04:04.002Z,15.48
2018-09-20T06:06:36.104Z,15.61
2018-09-20T06:09:08.864Z,15.69
2018-09-20T06:11:40.943Z,15.68
2018-09-20T06:14:13.089Z,15.71
2018-09-20T06:16:45.179Z,15.59
2018-09-20T06:19:17.409Z,15.69
2018-09-20T06:21:49.494Z,15.94
2018-09-20T06:24:21.627Z,16.02
2018-09-20T06:26:53.736Z,16.05
2018-09-20T06:29:25.868Z,15.96
2018-09-20T06:31:57.983Z,16.03
2018-09-20T06:34:30.115Z,15.92
2018-09-20T06:37:02.393Z,15.98
2018-09-20T06:39:38.990Z,16.20
2018-09-20T06:42:15.304Z,16.28
2018-09-20T06:44:47.534Z,16.48
2018-09-20T06:47:19.705Z,16.59
2018-09-20T06:49:51.835Z,16.72
2018-09-20T06:52:23.896Z,16.54
2018-09-20T06:54:56.029Z,16.72
2018-09-20T06:57:36.544Z,16.97
2018-09-20T07:00:08.791Z,16.85
2018-09-20T07:02:40.923Z,17.02
2018-09-20T07:05:13.185Z,16.90
2018-09-20T07:07:45.263Z,16.87
2018-09-20T07:10:17.361Z,17.25
2018-09-20T07:12:49.405Z,17.28
2018-09-20T07:15:21.494Z,17.40
2018-09-20T07:18:27.216Z,17.44
2018-09-20T07:20:59.446Z,17.66
2018-09-20T07:23:31.720Z,17.62
2018-09-20T07:26:03.937Z,17.50
2018-09-20T07:28:36.176Z,17.60
2018-09-20T07:31:08.446Z,17.81
2018-09-20T07:33:40.695Z,17.77
2018-09-20T07:36:12.974Z,18.26
2018-09-20T07:38:45.201Z,18.39
2018-09-20T07:41:17.476Z,18.23
2018-09-20T07:43:49.727Z,18.50
2018-09-20T07:46:21.995Z,19.38
2018-09-20T07:48:54.211Z,19.35
2018-09-20T07:51:26.466Z,19.50
2018-09-20T07:53:58.779Z,19.43
2018-09-20T07:56:31.452Z,19.37
2018-09-20T07:59:03.700Z,18.84
2018-09-20T08:01:36.116Z,19.27
2018-09-20T08:04:08.338Z,20.19
2018-09-20T08:06:40.611Z,21.39
2018-09-20T08:09:12.964Z,22.03
2018-09-20T08:11:45.216Z,22.07
2018-09-20T08:14:17.498Z,22.17
2018-09-20T08:16:49.728Z,22.21
2018-09-20T08:19:21.971Z,22.23
2018-09-20T08:21:54.402Z,22.41
2018-09-20T08:24:26.718Z,22.71
2018-09-20T08:26:58.973Z,22.74
2018-09-20T08:29:31.161Z,23.09
2018-09-20T08:32:03.526Z,23.54
2018-09-20T08:34:35.820Z,23.57
2018-09-20T08:37:08.112Z,23.88
2018-09-20T08:39:40.293Z,23.66
2018-09-20T08:42:12.547Z,23.69
2018-09-20T08:44:44.757Z,23.73
2018-09-20T08:47:16.993Z,23.32
2018-09-20T08:49:49.241Z,23.04
2018-09-20T08:52:21.461Z,23.45
2018-09-20T08:54:53.822Z,24.18
2018-09-20T08:57:26.161Z,24.08
2018-09-20T08:59:58.382Z,23.74
2018-09-20T09:02:30.621Z,23.61
2018-09-20T09:05:02.929Z,23.99
2018-09-20T09:07:35.160Z,23.77
2018-09-20T09:10:07.401Z,23.76
2018-09-20T09:12:39.605Z,24.42
2018-09-20T09:15:11.903Z,24.59
2018-09-20T09:17:44.129Z,25.10
2018-09-20T09:20:16.401Z,25.31
2018-09-20T09:22:48.671Z,25.02
2018-09-20T09:25:20.929Z,24.86
2018-09-20T09:27:53.209Z,24.69
2018-09-20T09:30:25.434Z,25.21
2018-09-20T09:32:57.690Z,25.01
2018-09-20T09:35:29.959Z,25.64
2018-09-20T09:38:02.178Z,26.10
2018-09-20T09:40:34.396Z,25.64
2018-09-20T09:43:06.639Z,25.91
2018-09-20T09:45:38.888Z,25.65
2018-09-20T09:48:11.123Z,26.12
2018-09-20T09:50:43.333Z,26.64
2018-09-20T09:53:15.637Z,26.58
2018-09-20T09:55:47.928Z,26.40
2018-09-20T09:58:20.198Z,26.71
2018-09-20T10:00:52.443Z,26.63
2018-09-20T10:03:24.742Z,26.79
2018-09-20T10:05:56.992Z,27.33
2018-09-20T10:08:29.263Z,27.57
2018-09-20T10:11:01.545Z,26.96
2018-09-20T10:13:33.949Z,26.50
2018-09-20T10:16:06.088Z,27.12
2018-09-20T10:18:38.321Z,27.09
2018-09-20T10:21:10.535Z,26.72
2018-09-20T10:23:42.805Z,27.21
2018-09-20T10:26:15.098Z,27.48
2018-09-20T10:28:47.392Z,27.29
2018-09-20T10:31:19.670Z,27.65
2018-09-20T10:33:51.930Z,27.61
2018-09-20T10:36:24.161Z,27.57
2018-09-20T10:38:56.391Z,28.01
2018-09-20T10:41:28.674Z,27.69
2018-09-20T10:44:00.920Z,27.80
2018-09-20T10:46:33.145Z,27.91
2018-09-20T10:49:05.461Z,28.30
2018-09-20T10:51:37.704Z,28.13
2018-09-20T10:54:09.938Z,27.75
2018-09-20T10:56:42.221Z,27.93
2018-09-20T10:59:14.523Z,28.20
2018-09-20T11:01:46.778Z,28.20
2018-09-20T11:04:19.015Z,27.62
2018-09-20T11:06:51.254Z,27.98
2018-09-20T11:09:23.520Z,27.85
2018-09-20T11:11:55.773Z,27.96
2018-09-20T11:14:28.002Z,28.23
2018-09-20T11:17:00.278Z,28.37
2018-09-20T11:19:32.519Z,28.14
2018-09-20T11:22:04.829Z,28.01
2018-09-20T11:24:37.057Z,28.35
2018-09-20T11:27:09.294Z,28.00
2018-09-20T11:29:41.565Z,28.40
2018-09-20T11:32:13.796Z,28.80
2018-09-20T11:34:46.053Z,29.30
2018-09-20T11:37:18.035Z,28.71
2018-09-20T11:39:50.242Z,28.79
2018-09-20T11:42:22.448Z,28.84
2018-09-20T11:44:54.672Z,28.96
2018-09-20T11:47:26.903Z,29.21
2018-09-20T11:49:59.178Z,29.56
2018-09-20T11:52:31.429Z,29.86
2018-09-20T11:55:03.805Z,29.91
2018-09-20T11:57:36.057Z,29.60
2018-09-20T12:00:08.302Z,29.56
2018-09-20T12:02:40.588Z,29.88
2018-09-20T12:05:12.802Z,29.59
2018-09-20T12:07:45.070Z,30.07
2018-09-20T12:10:17.989Z,30.05
2018-09-20T12:12:50.278Z,30.33
2018-09-20T12:15:22.537Z,29.48
2018-09-20T12:17:54.810Z,29.75
2018-09-20T12:20:27.081Z,29.50
2018-09-20T12:22:59.334Z,29.53
2018-09-20T12:25:31.621Z,29.97
2018-09-20T12:28:03.854Z,30.63
2018-09-20T12:30:36.125Z,30.77
2018-09-20T12:33:08.337Z,30.25
2018-09-20T12:35:40.721Z,30.41
2018-09-20T12:38:12.949Z,29.93
2018-09-20T12:40:45.270Z,30.29
2018-09-20T12:43:17.651Z,30.47
2018-09-20T12:45:49.862Z,30.12
2018-09-20T12:48:22.154Z,30.18
2018-09-20T12:50:54.352Z,29.98
2018-09-20T12:53:26.597Z,30.61
2018-09-20T12:55:58.862Z,30.52
2018-09-20T12:58:34.124Z,30.98
2018-09-20T13:01:06.629Z,30.67
2018-09-20T13:03:38.875Z,30.56
2018-09-20T13:06:11.136Z,30.52
2018-09-20T13:08:43.411Z,30.75
2018-09-20T13:11:15.820Z,30.93
2018-09-20T13:13:48.086Z,30.74
2018-09-20T13:16:20.358Z,31.24
2018-09-20T13:18:52.615Z,32.76
2018-09-20T13:21:24.881Z,33.27
2018-09-20T13:23:57.131Z,33.48
2018-09-20T13:26:29.426Z,34.32
2018-09-20T13:29:01.735Z,34.67
2018-09-20T13:31:34.008Z,33.90
2018-09-20T13:34:06.272Z,33.98
2018-09-20T13:36:38.563Z,32.44
2018-09-20T13:39:11.844Z,32.47
2018-09-20T13:41:44.120Z,33.27
2018-09-20T13:44:16.390Z,33.74
2018-09-20T13:46:48.762Z,33.63
2018-09-20T13:49:21.049Z,33.52
2018-09-20T13:51:53.359Z,33.86
2018-09-20T13:54:25.610Z,32.79
2018-09-20T13:56:57.899Z,33.68
2018-09-20T13:59:30.173Z,33.22
2018-09-20T14:02:02.506Z,34.04
2018-09-20T14:04:34.825Z,33.92
2018-09-20T14:07:07.077Z,33.81
2018-09-20T14:09:39.367Z,34.94
2018-09-20T14:12:11.694Z,36.04
2018-09-20T14:14:43.907Z,33.96
2018-09-20T14:17:16.191Z,34.51
2018-09-20T14:19:48.430Z,34.78
2018-09-20T14:22:20.653Z,34.42
2018-09-20T14:24:53.212Z,35.59
2018-09-20T14:27:25.490Z,34.99
2018-09-20T14:29:57.723Z,35.24
2018-09-20T14:32:30.024Z,34.85
2018-09-20T14:35:02.327Z,34.72
2018-09-20T14:37:34.578Z,35.31
2018-09-20T14:40:06.902Z,33.49
2018-09-20T14:42:39.123Z,33.71
2018-09-20T14:45:11.302Z,34.04
2018-09-20T14:47:43.481Z,33.97
2018-09-20T14:50:15.555Z,33.80
2018-09-20T14:52:47.751Z,33.49
2018-09-20T14:55:19.848Z,33.28
2018-09-20T14:57:51.919Z,33.10
2018-09-20T15:00:24.309Z,33.18
2018-09-20T15:02:56.470Z,32.12
2018-09-20T15:05:28.604Z,31.72
2018-09-20T15:08:00.802Z,31.88
2018-09-20T15:10:32.812Z,30.32
2018-09-20T15:13:05.144Z,30.42
2018-09-20T15:15:37.252Z,29.90
2018-09-20T15:18:09.362Z,29.39
2018-09-20T15:20:41.444Z,29.71
2018-09-20T15:23:13.542Z,29.11
2018-09-20T15:25:45.825Z,28.57
2018-09-20T15:28:17.921Z,28.75
2018-09-20T15:30:50.002Z,28.68
2018-09-20T15:33:22.163Z,28.59
2018-09-20T15:35:54.262Z,28.14
2018-09-20T15:38:26.449Z,27.93
2018-09-20T15:40:58.492Z,27.86
2018-09-20T15:43:30.685Z,27.88
2018-09-20T15:46:02.714Z,27.60
2018-09-20T15:48:34.752Z,27.41
2018-09-20T15:51:06.875Z,27.37
2018-09-20T15:53:38.971Z,27.37
2018-09-20T15:56:11.427Z,27.30
2018-09-20T15:58:43.488Z,27.16
2018-09-20T16:01:15.589Z,27.16
2018-09-20T16:03:47.624Z,27.07
2018-09-20T16:06:19.733Z,26.97
2018-09-20T16:08:51.789Z,27.06
2018-09-20T16:11:23.823Z,26.86
2018-09-20T16:13:55.887Z,26.64
2018-09-20T16:16:27.907Z,26.58
2018-09-20T16:18:59.947Z,26.46
2018-09-20T16:21:31.991Z,26.32
2018-09-20T16:24:04.029Z,26.26
2018-09-20T16:26:37.872Z,26.11
2018-09-20T16:29:30.532Z,26.00
2018-09-20T16:32:09.269Z,25.77
2018-09-20T16:35:19.802Z,25.73
2018-09-20T16:38:06.103Z,25.50
2018-09-20T16:40:40.027Z,25.32
2018-09-20T16:43:12.052Z,25.21
2018-09-20T16:45:44.056Z,25.09
2018-09-20T16:48:16.102Z,24.87
2018-09-20T16:50:48.143Z,24.78
2018-09-20T16:53:20.407Z,24.66
2018-09-20T16:55:52.338Z,24.51
2018-09-20T16:58:24.447Z,24.44
2018-09-20T17:00:56.533Z,24.26
2018-09-20T17:03:28.601Z,24.16
2018-09-20T17:06:00.637Z,23.96
2018-09-20T17:08:32.697Z,23.83
2018-09-20T17:11:04.769Z,23.71
2018-09-20T17:13:36.834Z,23.56
2018-09-20T17:16:09.019Z,23.43
2018-09-20T17:18:41.063Z,23.27
2018-09-20T17:21:13.103Z,23.09
2018-09-20T17:23:45.168Z,23.02
2018-09-20T17:26:17.165Z,22.93
2018-09-20T17:28:49.201Z,22.80
2018-09-20T17:31:21.288Z,22.69
2018-09-20T17:33:53.351Z,22.54
2018-09-20T17:36:25.748Z,22.43
2018-09-20T17:38:58.366Z,22.28
2018-09-20T17:41:32.673Z,22.37
2018-09-20T17:44:06.282Z,22.21
2018-09-20T17:46:38.319Z,22.00
2018-09-20T17:49:10.379Z,21.81
2018-09-20T17:51:42.731Z,21.81
2018-09-20T17:54:15.189Z,21.67
2018-09-20T17:56:47.413Z,21.62
2018-09-20T17:59:19.540Z,21.57
2018-09-20T18:01:51.623Z,21.51
2018-09-20T18:04:23.671Z,21.42
2018-09-20T18:06:56.535Z,21.26
2018-09-20T18:09:28.559Z,21.16
2018-09-20T18:12:00.579Z,20.99
2018-09-20T18:14:32.727Z,20.79
2018-09-20T18:17:04.760Z,20.67
2018-09-20T18:19:36.875Z,20.60
2018-09-20T18:22:08.896Z,20.49
2018-09-20T18:24:40.982Z,20.40
2018-09-20T18:27:13.072Z,20.22
2018-09-20T18:29:45.104Z,20.16
2018-09-20T18:32:17.164Z,20.16
2018-09-20T18:34:49.192Z,20.16
2018-09-20T18:37:21.280Z,20.14
2018-09-20T18:39:53.324Z,20.06
2018-09-20T18:42:25.432Z,20.05
2018-09-20T18:44:57.473Z,19.86
2018-09-20T18:47:29.557Z,19.83
2018-09-20T18:50:01.719Z,19.82
2018-09-20T18:52:33.805Z,19.74
2018-09-20T18:55:06.127Z,19.67
2018-09-20T18:57:38.224Z,19.62
2018-09-20T19:00:10.332Z,19.54
2018-09-20T19:02:42.372Z,19.40
2018-09-20T19:05:14.464Z,19.39
2018-09-20T19:07:46.776Z,19.41
2018-09-20T19:10:18.844Z,19.32
2018-09-20T19:12:50.917Z,19.33
2018-09-20T19:15:22.955Z,19.28
2018-09-20T19:17:55.048Z,19.19
2018-09-20T19:20:27.099Z,19.14
2018-09-20T19:22:59.200Z,19.01
2018-09-20T19:25:31.312Z,19.00
2018-09-20T19:28:03.361Z,18.87
2018-09-20T19:30:35.427Z,18.89
2018-09-20T19:33:07.465Z,18.87
2018-09-20T19:35:39.527Z,18.84
2018-09-20T19:38:11.593Z,18.85
2018-09-20T19:40:43.632Z,18.84
2018-09-20T19:43:15.671Z,18.91
2018-09-20T19:45:47.861Z,18.91
2018-09-20T19:48:19.800Z,18.98
2018-09-20T19:50:51.956Z,18.95
2018-09-20T19:53:24.020Z,18.91
2018-09-20T19:55:56.074Z,18.85
2018-09-20T19:58:28.135Z,18.81
2018-09-20T20:01:00.218Z,18.66
2018-09-20T20:03:32.272Z,18.59
2018-09-20T20:06:04.332Z,18.52
2018-09-20T20:08:36.372Z,18.42
2018-09-20T20:11:08.432Z,18.43
2018-09-20T20:13:40.469Z,18.40
2018-09-20T20:16:12.507Z,18.33
2018-09-20T20:18:44.556Z,18.42
2018-09-20T20:21:16.744Z,18.43
2018-09-20T20:23:48.942Z,18.44
2018-09-20T20:26:20.983Z,18.55
2018-09-20T20:28:53.053Z,18.49
2018-09-20T20:31:25.106Z,18.48
2018-09-20T20:33:57.124Z,18.49
2018-09-20T20:36:29.232Z,18.45
2018-09-20T20:39:01.299Z,18.36
2018-09-20T20:41:33.367Z,18.32
2018-09-20T20:44:05.456Z,18.26
2018-09-20T20:46:37.484Z,18.22
2018-09-20T20:49:09.568Z,18.20
2018-09-20T20:51:41.614Z,18.07
2018-09-20T20:54:13.676Z,17.96
2018-09-20T20:56:45.786Z,17.88
2018-09-20T20:59:17.824Z,17.84
2018-09-20T21:01:49.885Z,17.84
2018-09-20T21:04:21.947Z,17.82
2018-09-20T21:06:54.047Z,17.79
2018-09-20T21:09:26.072Z,17.61
2018-09-20T21:11:58.148Z,17.49
2018-09-20T21:14:30.274Z,17.41
2018-09-20T21:17:02.305Z,17.41
2018-09-20T21:19:34.331Z,17.27
2018-09-20T21:22:06.415Z,17.19
2018-09-20T21:24:38.488Z,17.18
2018-09-20T21:27:11.653Z,17.13
2018-09-20T21:29:43.727Z,17.17
2018-09-20T21:32:15.804Z,17.24
2018-09-20T21:34:47.868Z,17.24
2018-09-20T21:37:19.929Z,17.17
2018-09-20T21:39:51.984Z,17.21
2018-09-20T21:42:24.045Z,17.15
2018-09-20T21:44:56.131Z,17.14
2018-09-20T21:47:28.244Z,17.07
2018-09-20T21:50:00.239Z,17.12
2018-09-20T21:52:32.305Z,17.10
2018-09-20T21:55:04.334Z,17.02
2018-09-20T21:57:36.394Z,16.85
2018-09-20T22:00:08.544Z,16.85
2018-09-20T22:02:46.264Z,16.75
2018-09-20T22:05:18.279Z,16.78
2018-09-20T22:07:50.371Z,16.71
2018-09-20T22:10:22.416Z,16.80
2018-09-20T22:12:54.600Z,16.66
2018-09-20T22:15:27.584Z,16.58
2018-09-20T22:17:59.656Z,16.55
2018-09-20T22:20:31.729Z,16.46
2018-09-20T22:23:03.796Z,16.49
2018-09-20T22:25:35.925Z,16.36
2018-09-20T22:28:08.102Z,16.18
2018-09-20T22:30:40.150Z,16.15
2018-09-20T22:33:12.238Z,16.19
2018-09-20T22:35:44.292Z,16.25
2018-09-20T22:38:16.364Z,16.23
2018-09-20T22:40:48.410Z,16.19
2018-09-20T22:43:20.483Z,16.11
2018-09-20T22:45:52.581Z,16.05
2018-09-20T22:48:24.649Z,16.02
2018-09-20T22:50:56.723Z,15.88
2018-09-20T22:53:28.773Z,15.88
2018-09-20T22:56:00.820Z,15.91
2018-09-20T22:58:32.860Z,15.78
2018-09-20T23:01:05.030Z,15.69
2018-09-20T23:03:37.112Z,15.58
2018-09-20T23:06:09.136Z,15.47
2018-09-20T23:08:41.172Z,15.39
2018-09-20T23:11:13.238Z,15.33
2018-09-20T23:13:45.300Z,15.34
2018-09-20T23:16:17.379Z,15.23
2018-09-20T23:18:49.424Z,15.17
2018-09-20T23:21:21.516Z,15.14
2018-09-20T23:23:53.559Z,15.09
2018-09-20T23:26:25.576Z,15.07
2018-09-20T23:28:57.624Z,15.14
2018-09-20T23:31:29.713Z,15.03
2018-09-20T23:34:01.822Z,15.00
2018-09-20T23:36:33.841Z,14.95
2018-09-20T23:39:08.274Z,14.88
2018-09-20T23:41:40.354Z,14.79
2018-09-20T23:44:12.388Z,14.78
2018-09-20T23:46:44.464Z,14.76
2018-09-20T23:49:16.504Z,14.75
2018-09-20T23:51:48.544Z,14.69
2018-09-20T23:54:20.628Z,14.70
2018-09-20T23:56:52.865Z,14.65
2018-09-20T23:59:24.907Z,14.60
